Time;durP1;ratioP1;P1;durP2;ratioP2;P2;SDS_P1;SDS_P2;PMS_P1;PMS_P2;Temp;Humidity;BMP_temperature;BMP_pressure;BME280_temperature;BME280_humidity;BME280_pressure;Samples;Min_cycle;Max_cycle;Signal;HPM_P1;HPM_P2
2021/04/27 04:00:44;;;;;;;3.27;1.67;;;-4.90;96.30;;;;;;5651278;23;20524;-73
2021/04/27 04:03:10;;;;;;;2.70;1.63;;;-4.80;96.30;;;;;;4866643;29;20911;-73
2021/04/27 04:05:35;;;;;;;2.07;1.60;;;-4.80;96.30;;;;;;4878468;29;20193;-71
2021/04/27 04:08:01;;;;;;;5.20;1.80;;;-4.70;96.30;;;;;;4877852;29;20243;-72
2021/04/27 04:10:26;;;;;;;6.57;1.90;;;-4.60;96.30;;;;;;4878415;29;20203;-72
2021/04/27 04:12:52;;;;;;;1.93;1.43;;;-4.50;96.30;;;;;;4878166;29;20215;-72
2021/04/27 04:15:19;;;;;;;5.20;3.77;;;-4.50;96.30;;;;;;4878521;29;20181;-72
2021/04/27 04:17:45;;;;;;;4.43;2.70;;;-4.40;96.30;;;;;;4877340;29;20258;-72
2021/04/27 04:20:14;;;;;;;4.80;2.03;;;-4.40;96.30;;;;;;4877909;29;20910;-72
2021/04/27 04:22:40;;;;;;;6.87;3.37;;;-4.30;96.30;;;;;;4877888;29;20185;-73
2021/04/27 04:25:07;;;;;;;3.60;2.70;;;-4.20;96.30;;;;;;4877901;29;20505;-72
2021/04/27 04:27:34;;;;;;;4.90;2.20;;;-4.00;96.30;;;;;;4877250;29;20524;-72
2021/04/27 04:30:04;;;;;;;3.10;2.00;;;-3.90;96.30;;;;;;4877468;29;20411;-73
2021/04/27 04:32:30;;;;;;;3.47;2.23;;;-3.50;96.30;;;;;;4877756;29;20786;-72
2021/04/27 04:34:55;;;;;;;8.10;2.37;;;-2.40;96.30;;;;;;4878038;29;20501;-73
2021/04/27 04:37:21;;;;;;;6.80;1.90;;;-1.40;96.30;;;;;;4877013;29;20177;-72
2021/04/27 04:39:46;;;;;;;4.17;2.17;;;-0.50;96.30;;;;;;4877958;29;20532;-72
2021/04/27 04:42:11;;;;;;;4.10;2.20;;;0.90;96.30;;;;;;4877646;29;20666;-74
2021/04/27 04:44:37;;;;;;;6.00;2.47;;;1.80;96.30;;;;;;4878018;29;20221;-73
2021/04/27 04:47:03;;;;;;;4.93;1.97;;;2.20;94.50;;;;;;4877381;29;20684;-73
2021/04/27 04:49:28;;;;;;;3.50;2.33;;;2.50;94.70;;;;;;4877623;29;20178;-74
2021/04/27 04:51:54;;;;;;;3.80;2.17;;;3.20;91.70;;;;;;4877762;29;20266;-74
2021/04/27 04:54:20;;;;;;;7.57;2.23;;;3.40;89.50;;;;;;4876771;29;20216;-75
2021/04/27 04:56:47;;;;;;;3.47;1.73;;;2.90;90.40;;;;;;4862236;29;20934;-77
2021/04/27 04:59:12;;;;;;;3.60;2.30;;;2.40;92.10;;;;;;4860642;29;20427;-73
2021/04/27 05:01:38;;;;;;;5.70;2.83;;;2.10;93.70;;;;;;4862201;29;20462;-73
2021/04/27 05:04:04;;;;;;;10.43;2.50;;;1.70;94.50;;;;;;4861099;29;20610;-73
2021/04/27 05:06:35;;;;;;;7.23;2.43;;;1.30;96.30;;;;;;4861731;29;20549;-75
2021/04/27 05:09:01;;;;;;;4.93;2.17;;;1.20;96.30;;;;;;4861753;29;20918;-73
2021/04/27 05:11:26;;;;;;;4.23;2.40;;;0.90;96.30;;;;;;4875098;29;20927;-74
2021/04/27 05:13:53;;;;;;;3.07;2.10;;;0.70;96.30;;;;;;4880807;29;20429;-73
2021/04/27 05:16:18;;;;;;;5.03;2.10;;;0.70;96.30;;;;;;4880100;29;20530;-73
2021/04/27 05:18:44;;;;;;;2.57;1.80;;;0.60;96.30;;;;;;4880165;29;20459;-73
2021/04/27 05:21:10;;;;;;;3.00;2.17;;;0.60;96.30;;;;;;4880391;29;20201;-73
2021/04/27 05:23:35;;;;;;;7.80;1.97;;;0.50;96.30;;;;;;4880555;29;20186;-73
2021/04/27 05:26:01;;;;;;;7.80;1.83;;;0.60;96.30;;;;;;4880522;29;20646;-73
2021/04/27 05:28:26;;;;;;;3.80;2.23;;;0.80;96.30;;;;;;4879879;29;20232;-73
2021/04/27 05:30:52;;;;;;;2.60;2.00;;;1.90;96.30;;;;;;4879457;29;20193;-73
2021/04/27 05:33:17;;;;;;;6.67;2.40;;;3.80;93.70;;;;;;4880444;29;20663;-74
2021/04/27 05:35:43;;;;;;;2.83;1.80;;;5.60;86.20;;;;;;4878120;29;20655;-73
2021/04/27 05:38:09;;;;;;;7.70;2.10;;;7.50;79.40;;;;;;4878970;29;20294;-74
2021/04/27 05:40:36;;;;;;;2.90;1.90;;;8.40;75.40;;;;;;4865729;29;20346;-72
2021/04/27 05:43:02;;;;;;;3.33;2.17;;;8.80;70.90;;;;;;4874012;29;20922;-73
2021/04/27 05:45:28;;;;;;;4.60;2.33;;;9.80;68.90;;;;;;4878016;29;20890;-73
2021/04/27 05:47:54;;;;;;;2.97;1.70;;;9.80;66.90;;;;;;4879077;29;20497;-73
2021/04/27 05:50:20;;;;;;;3.47;2.03;;;10.50;65.70;;;;;;4879762;29;20257;-73
2021/04/27 05:52:45;;;;;;;4.23;2.03;;;9.70;66.20;;;;;;4872703;29;20216;-73
2021/04/27 05:55:12;;;;;;;4.33;2.20;;;10.40;65.00;;;;;;4872015;29;20192;-74
2021/04/27 05:57:38;;;;;;;3.97;2.80;;;9.80;65.90;;;;;;4868359;29;20672;-73
2021/04/27 06:00:05;;;;;;;5.47;2.37;;;10.10;65.90;;;;;;4872701;29;20514;-73
2021/04/27 06:02:30;;;;;;;3.47;2.20;;;11.20;63.60;;;;;;4865564;29;20225;-73
2021/04/27 06:04:56;;;;;;;7.90;3.60;;;12.60;60.30;;;;;;4877945;29;20437;-71
2021/04/27 06:07:21;;;;;;;5.57;2.50;;;12.90;59.70;;;;;;4864723;29;20580;-71
2021/04/27 06:09:48;;;;;;;4.53;2.50;;;12.50;59.00;;;;;;4879247;29;20188;-72
2021/04/27 06:12:13;;;;;;;3.60;2.10;;;11.70;60.50;;;;;;4879563;29;20220;-71
2021/04/27 06:14:39;;;;;;;3.93;2.40;;;12.50;59.50;;;;;;4879756;29;20914;-71
2021/04/27 06:17:04;;;;;;;2.53;1.70;;;11.80;60.50;;;;;;4863775;29;20185;-72
2021/04/27 06:19:30;;;;;;;8.33;1.93;;;11.70;60.20;;;;;;4878637;29;20554;-71
2021/04/27 06:21:55;;;;;;;4.13;2.33;;;11.80;61.30;;;;;;4862646;29;20624;-71
2021/04/27 06:24:21;;;;;;;5.60;2.40;;;12.10;59.50;;;;;;4877582;29;20192;-71
2021/04/27 06:26:46;;;;;;;8.73;2.53;;;11.40;60.70;;;;;;4878820;29;20209;-71
2021/04/27 06:29:12;;;;;;;5.63;2.20;;;10.90;62.60;;;;;;4875893;29;20180;-71
2021/04/27 06:31:37;;;;;;;4.20;2.30;;;11.40;63.10;;;;;;4876149;29;20201;-73
2021/04/27 06:34:04;;;;;;;7.30;2.40;;;12.10;60.80;;;;;;4864738;29;20197;-72
2021/04/27 06:36:31;;;;;;;5.53;2.10;;;12.50;60.10;;;;;;4873174;29;20200;-73
2021/04/27 06:38:57;;;;;;;6.60;2.17;;;12.90;59.30;;;;;;4878668;29;20492;-72
2021/04/27 06:41:23;;;;;;;5.90;2.30;;;12.90;58.30;;;;;;4878740;29;20869;-72
2021/04/27 06:43:50;;;;;;;5.67;2.50;;;12.20;58.90;;;;;;4866950;29;20190;-72
2021/04/27 06:46:15;;;;;;;6.37;2.40;;;11.80;60.30;;;;;;4860646;29;20314;-73
2021/04/27 06:48:41;;;;;;;4.50;2.77;;;11.90;60.60;;;;;;4860150;29;20506;-72
2021/04/27 06:51:07;;;;;;;5.13;2.07;;;11.90;60.10;;;;;;4868713;29;20200;-73
2021/04/27 06:53:34;;;;;;;5.30;2.70;;;12.00;59.90;;;;;;4877616;29;20222;-73
2021/04/27 06:56:00;;;;;;;4.03;2.20;;;12.00;61.10;;;;;;4877678;29;20930;-73
2021/04/27 06:58:25;;;;;;;5.37;2.70;;;12.30;59.80;;;;;;4877879;29;20449;-73
2021/04/27 07:00:51;;;;;;;2.77;1.77;;;12.30;61.00;;;;;;4866732;29;20502;-74
2021/04/27 07:03:16;;;;;;;6.40;2.40;;;12.40;57.70;;;;;;4870313;29;20269;-73
2021/04/27 07:05:43;;;;;;;6.40;2.33;;;12.10;58.20;;;;;;4877760;29;20281;-72
2021/04/27 07:08:09;;;;;;;4.20;2.17;;;12.00;58.50;;;;;;4876765;29;20205;-72
2021/04/27 07:10:35;;;;;;;4.50;1.93;;;11.40;59.30;;;;;;4866548;29;20454;-72
2021/04/27 07:13:00;;;;;;;3.10;1.93;;;11.20;59.20;;;;;;4868725;29;20835;-72
2021/04/27 07:15:26;;;;;;;3.27;1.90;;;11.40;59.30;;;;;;4877802;29;20218;-72
2021/04/27 07:17:52;;;;;;;5.07;1.97;;;11.20;59.00;;;;;;4877192;29;20182;-72
2021/04/27 07:20:18;;;;;;;5.10;2.43;;;10.90;58.50;;;;;;4878413;29;20203;-72
2021/04/27 07:22:44;;;;;;;4.53;1.90;;;10.70;60.40;;;;;;4875110;29;20189;-72
2021/04/27 07:25:11;;;;;;;3.20;1.80;;;11.20;59.40;;;;;;4877466;29;20177;-72
2021/04/27 07:27:37;;;;;;;3.60;1.80;;;11.60;59.30;;;;;;4867073;29;20587;-73
2021/04/27 07:30:04;;;;;;;5.30;2.43;;;11.90;58.80;;;;;;4859206;29;20924;-73
2021/04/27 07:32:30;;;;;;;4.37;1.90;;;11.70;59.20;;;;;;4868400;29;20522;-73
2021/04/27 07:34:55;;;;;;;6.50;1.93;;;11.40;59.80;;;;;;4877613;29;20410;-73
2021/04/27 07:37:21;;;;;;;4.67;2.63;;;11.20;59.10;;;;;;4877329;29;20193;-73
2021/04/27 07:39:47;;;;;;;4.00;1.93;;;12.20;58.90;;;;;;4877611;29;20221;-73
2021/04/27 07:42:12;;;;;;;4.20;2.40;;;12.20;58.30;;;;;;4860596;29;20215;-73
2021/04/27 07:44:39;;;;;;;3.30;2.00;;;12.30;58.10;;;;;;4878081;29;20251;-73
2021/04/27 07:47:05;;;;;;;4.87;2.30;;;12.40;57.80;;;;;;4868263;29;20236;-73
2021/04/27 07:49:30;;;;;;;5.40;2.57;;;12.20;57.20;;;;;;4871393;29;20490;-72
2021/04/27 07:51:56;;;;;;;3.60;2.13;;;12.00;57.40;;;;;;4867711;29;20457;-73
2021/04/27 07:54:22;;;;;;;3.17;2.10;;;11.80;59.30;;;;;;4866494;29;20342;-73
2021/04/27 07:56:48;;;;;;;4.60;2.17;;;11.90;59.10;;;;;;4877557;29;20209;-72
2021/04/27 07:59:14;;;;;;;8.87;2.73;;;11.30;59.20;;;;;;4876295;29;20910;-72
2021/04/27 08:01:39;;;;;;;5.10;2.50;;;11.20;61.40;;;;;;4877757;29;20239;-73
2021/04/27 08:04:05;;;;;;;4.33;2.00;;;11.60;59.30;;;;;;4875794;29;20942;-73
2021/04/27 08:06:31;;;;;;;3.73;2.30;;;11.20;58.80;;;;;;4864038;29;20197;-72
2021/04/27 08:08:57;;;;;;;13.13;2.60;;;11.10;60.20;;;;;;4866905;29;20197;-72
2021/04/27 08:11:23;;;;;;;3.20;2.40;;;11.00;60.00;;;;;;4869452;29;20454;-72
2021/04/27 08:13:49;;;;;;;4.97;2.37;;;10.50;62.10;;;;;;4876065;29;21104;-72
2021/04/27 08:16:15;;;;;;;4.10;2.20;;;10.70;60.60;;;;;;4876700;29;20650;-72
2021/04/27 08:18:41;;;;;;;4.90;2.10;;;10.40;61.90;;;;;;4873866;29;20430;-72
2021/04/27 08:21:09;;;;;;;4.80;2.17;;;10.50;61.80;;;;;;4876226;29;20236;-72
2021/04/27 08:23:36;;;;;;;5.23;2.50;;;10.50;60.90;;;;;;4876257;29;20430;-72
2021/04/27 08:26:06;;;;;;;4.00;2.57;;;10.50;62.50;;;;;;4875973;29;20969;-72
2021/04/27 08:28:32;;;;;;;3.83;2.40;;;10.70;62.70;;;;;;4879318;29;20508;-72
2021/04/27 08:30:57;;;;;;;6.63;2.53;;;11.80;60.00;;;;;;4867312;29;20498;-72
2021/04/27 08:33:24;;;;;;;4.57;2.00;;;11.00;59.30;;;;;;4871470;29;20186;-72
2021/04/27 08:35:50;;;;;;;4.53;2.00;;;10.50;61.10;;;;;;4880362;29;20178;-72
2021/04/27 08:38:16;;;;;;;5.60;2.10;;;10.50;61.90;;;;;;4877944;29;20914;-72
2021/04/27 08:40:42;;;;;;;5.80;2.27;;;10.30;61.80;;;;;;4881072;29;20497;-72
2021/04/27 08:43:08;;;;;;;4.50;2.23;;;10.20;62.80;;;;;;4879371;29;20251;-73
2021/04/27 08:45:34;;;;;;;8.27;2.70;;;10.30;61.90;;;;;;4881035;29;20186;-72
2021/04/27 08:48:00;;;;;;;5.40;2.80;;;10.80;61.70;;;;;;4877497;29;20522;-71
2021/04/27 08:50:25;;;;;;;6.03;2.53;;;10.50;63.00;;;;;;4880840;29;20177;-72
2021/04/27 08:52:51;;;;;;;6.33;2.60;;;10.70;62.20;;;;;;4874745;29;20423;-72
2021/04/27 08:55:18;;;;;;;5.00;2.67;;;10.70;62.00;;;;;;4880671;29;20192;-72
2021/04/27 08:57:44;;;;;;;11.70;2.20;;;11.60;62.60;;;;;;4879638;29;20257;-72
2021/04/27 09:00:18;;;;;;;12.17;2.97;;;11.80;60.30;;;;;;4878170;29;20476;-73
2021/04/27 09:02:54;;;;;;;5.03;2.23;;;10.90;62.60;;;;;;4869207;29;20186;-72
2021/04/27 09:05:22;;;;;;;3.37;2.17;;;10.80;61.00;;;;;;4880227;29;21004;-71
2021/04/27 09:07:50;;;;;;;7.33;2.20;;;11.10;61.50;;;;;;4879635;29;20461;-72
2021/04/27 09:10:22;;;;;;;4.77;1.80;;;10.60;61.90;;;;;;4874959;29;20472;-72
2021/04/27 09:13:01;;;;;;;3.23;2.20;;;10.30;63.70;;;;;;4872430;29;20423;-72
2021/04/27 09:15:36;;;;;;;5.43;2.60;;;10.10;62.40;;;;;;4875531;29;20418;-72
2021/04/27 09:18:22;;;;;;;4.20;2.20;;;10.30;64.80;;;;;;4868822;29;20934;-72
2021/04/27 09:20:52;;;;;;;4.70;2.60;;;11.30;61.50;;;;;;4880052;29;20489;-72
2021/04/27 09:23:17;;;;;;;6.23;2.80;;;11.40;61.70;;;;;;4877690;29;20517;-72
2021/04/27 09:26:13;;;;;;;5.60;2.53;;;11.50;62.00;;;;;;4879733;29;20510;-72
2021/04/27 09:28:50;;;;;;;6.57;2.70;;;11.00;62.40;;;;;;4877556;29;20608;-73
2021/04/27 09:31:28;;;;;;;9.20;2.83;;;11.60;63.90;;;;;;4879855;29;20457;-72
2021/04/27 09:33:55;;;;;;;4.80;2.47;;;11.70;59.70;;;;;;4880106;29;20505;-72
2021/04/27 09:36:24;;;;;;;5.97;2.47;;;11.60;60.90;;;;;;4879438;29;20430;-74
2021/04/27 09:38:54;;;;;;;6.97;2.63;;;11.30;61.00;;;;;;4879060;29;20414;-73
2021/04/27 09:41:25;;;;;;;6.70;2.80;;;11.20;61.20;;;;;;4879695;29;20462;-73
2021/04/27 09:43:51;;;;;;;5.13;2.80;;;11.00;63.60;;;;;;4877591;29;20430;-73
2021/04/27 09:46:19;;;;;;;3.70;2.50;;;12.10;62.10;;;;;;4876992;29;20439;-73
2021/04/27 09:48:45;;;;;;;2.67;2.10;;;12.10;59.10;;;;;;4868668;29;20514;-73
2021/04/27 09:51:14;;;;;;;6.20;3.17;;;12.40;60.50;;;;;;4872122;29;20458;-73
2021/04/27 09:53:53;;;;;;;3.33;2.80;;;11.30;59.40;;;;;;4879140;29;20486;-73
2021/04/27 09:56:41;;;;;;;5.20;3.40;;;11.30;61.70;;;;;;4879461;29;20406;-73
2021/04/27 09:59:28;;;;;;;8.03;2.37;;;11.50;61.70;;;;;;4868919;29;20438;-71
2021/04/27 10:02:02;;;;;;;4.50;2.87;;;11.70;60.10;;;;;;4878609;29;20469;-73
2021/04/27 10:04:28;;;;;;;6.07;2.73;;;11.80;63.40;;;;;;4870917;29;20968;-73
2021/04/27 10:06:56;;;;;;;4.27;2.60;;;11.90;60.60;;;;;;4860995;29;20871;-73
2021/04/27 10:09:22;;;;;;;6.10;2.60;;;11.80;60.40;;;;;;4870184;29;20945;-73
2021/04/27 10:11:49;;;;;;;5.97;2.60;;;12.40;61.30;;;;;;4861525;29;20490;-72
2021/04/27 10:14:15;;;;;;;3.90;2.47;;;12.20;58.30;;;;;;4862185;29;20175;-72
2021/04/27 10:16:40;;;;;;;5.97;3.40;;;11.80;59.30;;;;;;4860852;29;20428;-73
2021/04/27 10:19:08;;;;;;;4.73;3.10;;;12.00;63.30;;;;;;4860130;29;20439;-72
2021/04/27 10:21:34;;;;;;;9.13;3.47;;;11.40;60.90;;;;;;4876573;29;20201;-73
2021/04/27 10:24:03;;;;;;;8.93;2.77;;;11.90;61.50;;;;;;4879413;29;20942;-72
2021/04/27 10:26:31;;;;;;;9.70;3.53;;;12.10;61.70;;;;;;4878515;29;20427;-72
2021/04/27 10:29:09;;;;;;;3.23;2.83;;;12.90;61.70;;;;;;4877923;29;20433;-73
2021/04/27 10:31:38;;;;;;;4.73;2.77;;;13.40;59.50;;;;;;4878333;29;20450;-73
2021/04/27 10:34:10;;;;;;;17.57;3.50;;;12.90;57.00;;;;;;4879165;29;20417;-73
2021/04/27 10:36:49;;;;;;;10.70;3.30;;;11.80;58.70;;;;;;4861511;29;20812;-73
2021/04/27 10:39:16;;;;;;;11.30;3.33;;;12.20;61.30;;;;;;4860014;29;20806;-74
2021/04/27 10:41:54;;;;;;;6.23;2.57;;;12.20;60.60;;;;;;4859343;29;20442;-73
2021/04/27 10:44:24;;;;;;;3.03;2.30;;;12.60;60.60;;;;;;4861389;29;20432;-73
2021/04/27 10:46:59;;;;;;;6.70;3.67;;;12.90;59.00;;;;;;4865389;29;20459;-73
2021/04/27 10:49:34;;;;;;;6.50;2.80;;;13.00;59.40;;;;;;4877295;29;20414;-73
2021/04/27 10:52:01;;;;;;;7.93;3.20;;;13.70;58.90;;;;;;4877260;29;20831;-73
2021/04/27 10:54:37;;;;;;;4.60;2.57;;;13.40;57.80;;;;;;4878604;29;20422;-74
2021/04/27 10:57:03;;;;;;;2.73;2.47;;;12.60;58.60;;;;;;4877547;29;20425;-73
2021/04/27 10:59:47;;;;;;;6.43;3.07;;;12.40;61.10;;;;;;4867546;29;21030;-73
2021/04/27 11:02:30;;;;;;;4.00;2.80;;;12.90;60.70;;;;;;4876464;29;20248;-73
2021/04/27 11:05:01;;;;;;;4.30;2.80;;;13.00;58.40;;;;;;4877470;29;20440;-73
2021/04/27 11:07:27;;;;;;;9.00;3.40;;;13.20;59.40;;;;;;4877516;29;20461;-73
2021/04/27 11:09:58;;;;;;;6.17;3.00;;;12.90;59.70;;;;;;4878542;29;20425;-73
2021/04/27 11:12:51;;;;;;;4.00;2.40;;;13.20;59.20;;;;;;4876684;29;20205;-73
2021/04/27 11:15:26;;;;;;;11.73;3.00;;;13.10;58.30;;;;;;4861731;29;20427;-73
2021/04/27 11:18:09;;;;;;;4.00;2.60;;;12.70;59.10;;;;;;4869574;29;20460;-73
2021/04/27 11:21:09;;;;;;;5.70;3.00;;;12.30;59.80;;;;;;4878366;29;20489;-74
2021/04/27 11:23:53;;;;;;;4.03;2.00;;;12.20;60.20;;;;;;4874133;29;20432;-73
2021/04/27 11:26:39;;;;;;;7.10;3.27;;;12.20;60.60;;;;;;4871407;29;20678;-73
2021/04/27 11:29:11;;;;;;;5.07;3.87;;;12.60;59.00;;;;;;4866580;29;20514;-73
2021/04/27 11:31:57;;;;;;;5.57;3.27;;;12.40;58.20;;;;;;4877418;29;20446;-73
2021/04/27 11:34:24;;;;;;;4.60;2.50;;;13.00;59.90;;;;;;4890020;29;20517;-74
2021/04/27 11:36:50;;;;;;;8.40;3.07;;;13.10;57.70;;;;;;4874969;29;20437;-74
2021/04/27 11:39:21;;;;;;;7.97;2.80;;;12.90;56.40;;;;;;4875720;29;20505;-74
2021/04/27 11:41:57;;;;;;;9.70;2.43;;;13.00;56.50;;;;;;4875703;29;20454;-73
2021/04/27 11:44:36;;;;;;;5.90;3.10;;;13.00;57.00;;;;;;4867048;29;20444;-72
2021/04/27 11:47:07;;;;;;;4.40;2.70;;;13.00;57.40;;;;;;4870906;29;20577;-73
2021/04/27 11:50:04;;;;;;;4.83;3.30;;;13.00;56.90;;;;;;4877297;29;20426;-73
2021/04/27 11:52:49;;;;;;;5.50;2.43;;;12.50;58.40;;;;;;4865019;29;20462;-73
2021/04/27 11:55:25;;;;;;;4.80;3.30;;;12.80;59.70;;;;;;4872694;29;20525;-73
2021/04/27 11:58:03;;;;;;;4.93;2.90;;;12.80;56.60;;;;;;4871967;29;20505;-73
2021/04/27 12:00:35;;;;;;;6.57;3.00;;;12.90;58.90;;;;;;4871982;29;20437;-73
2021/04/27 12:03:14;;;;;;;7.93;3.67;;;13.60;56.50;;;;;;4876662;29;20476;-73
2021/04/27 12:05:40;;;;;;;7.80;2.77;;;13.90;56.80;;;;;;4879988;29;20434;-73
2021/04/27 12:08:21;;;;;;;4.13;2.60;;;14.30;57.30;;;;;;4878411;29;20579;-73
2021/04/27 12:11:03;;;;;;;3.87;2.17;;;14.70;54.70;;;;;;4880049;29;20212;-73
2021/04/27 12:13:29;;;;;;;6.73;2.93;;;14.10;56.40;;;;;;4880233;29;20458;-73
2021/04/27 12:16:11;;;;;;;4.10;2.30;;;13.20;55.30;;;;;;4880957;29;20454;-73
2021/04/27 12:18:54;;;;;;;8.50;2.57;;;13.10;56.40;;;;;;4881011;29;20170;-73
2021/04/27 12:21:32;;;;;;;4.97;2.90;;;13.60;61.40;;;;;;4870020;29;20451;-73
2021/04/27 12:24:17;;;;;;;5.73;3.10;;;14.30;55.70;;;;;;4878163;29;20435;-73
2021/04/27 12:27:09;;;;;;;5.83;2.90;;;13.40;56.00;;;;;;4881420;29;20444;-73
2021/04/27 12:29:39;;;;;;;4.07;2.40;;;12.80;56.60;;;;;;4881266;29;20430;-73
2021/04/27 12:32:11;;;;;;;3.70;2.67;;;13.20;55.20;;;;;;4877480;29;20478;-71
2021/04/27 12:34:58;;;;;;;7.53;2.93;;;13.30;54.60;;;;;;4863002;29;20413;-73
2021/04/27 12:37:25;;;;;;;2.93;2.30;;;13.00;55.90;;;;;;4854903;29;20439;-74
2021/04/27 12:39:52;;;;;;;4.77;2.60;;;13.70;55.70;;;;;;4872403;29;20437;-73
2021/04/27 12:42:20;;;;;;;5.17;2.63;;;14.20;58.30;;;;;;4879936;29;20449;-73
2021/04/27 12:44:54;;;;;;;4.77;3.00;;;14.20;55.50;;;;;;4880559;29;20430;-74
2021/04/27 12:47:26;;;;;;;4.90;2.73;;;14.50;56.10;;;;;;4868138;29;20619;-74
2021/04/27 12:50:01;;;;;;;4.23;2.80;;;14.80;54.00;;;;;;4881774;29;20462;-73
2021/04/27 12:52:28;;;;;;;5.70;3.50;;;14.00;56.30;;;;;;4869562;29;20452;-73
2021/04/27 12:55:00;;;;;;;4.10;2.57;;;13.90;56.10;;;;;;4881458;29;20454;-74
2021/04/27 12:57:27;;;;;;;6.10;2.90;;;14.00;54.60;;;;;;4880260;29;20511;-73
2021/04/27 12:59:56;;;;;;;7.07;2.87;;;13.90;54.60;;;;;;4879688;29;20426;-73
2021/04/27 13:02:22;;;;;;;12.13;2.80;;;14.10;56.00;;;;;;4872759;29;20473;-73
2021/04/27 13:04:54;;;;;;;5.60;3.13;;;14.30;54.70;;;;;;4875392;29;20463;-73
2021/04/27 13:07:30;;;;;;;3.13;2.63;;;14.60;55.10;;;;;;4879482;29;20516;-73
2021/04/27 13:09:59;;;;;;;2.50;2.27;;;14.30;52.80;;;;;;4878022;29;20409;-74
2021/04/27 13:12:27;;;;;;;5.00;2.70;;;14.20;52.20;;;;;;4874822;29;21135;-73
2021/04/27 13:14:55;;;;;;;6.20;2.70;;;14.30;54.80;;;;;;4877146;29;20783;-73
2021/04/27 13:17:23;;;;;;;5.87;3.50;;;14.10;52.30;;;;;;4872764;29;20858;-73
2021/04/27 13:19:51;;;;;;;4.27;2.67;;;13.90;54.60;;;;;;4872530;29;20430;-73
2021/04/27 13:22:20;;;;;;;4.80;2.87;;;14.30;52.90;;;;;;4875876;29;20454;-72
2021/04/27 13:24:48;;;;;;;4.10;2.97;;;13.80;53.30;;;;;;4861441;29;20477;-73
2021/04/27 13:27:26;;;;;;;3.90;2.63;;;14.10;54.30;;;;;;4876236;29;20555;-73
2021/04/27 13:30:03;;;;;;;5.10;2.67;;;14.30;54.60;;;;;;4860867;29;20403;-73
2021/04/27 13:32:29;;;;;;;7.63;3.03;;;14.30;53.50;;;;;;4873661;29;20459;-72
2021/04/27 13:34:55;;;;;;;5.53;3.20;;;13.80;54.80;;;;;;4861823;29;20434;-73
2021/04/27 13:37:20;;;;;;;3.90;2.90;;;14.10;55.40;;;;;;4870368;29;20213;-73
2021/04/27 13:39:46;;;;;;;4.33;2.90;;;14.30;52.90;;;;;;4866484;29;20264;-73
2021/04/27 13:42:11;;;;;;;7.90;3.00;;;14.00;54.10;;;;;;4879580;29;20205;-73
2021/04/27 13:44:37;;;;;;;3.07;2.47;;;14.10;55.20;;;;;;4880296;29;20186;-72
2021/04/27 13:47:04;;;;;;;4.83;2.40;;;14.20;53.70;;;;;;4879146;29;20707;-73
2021/04/27 13:49:32;;;;;;;7.53;2.70;;;14.00;54.30;;;;;;4872876;29;20238;-72
2021/04/27 13:51:58;;;;;;;5.93;2.67;;;13.80;53.30;;;;;;4862386;29;20515;-72
2021/04/27 13:54:24;;;;;;;7.17;2.87;;;13.50;52.50;;;;;;4863027;29;20439;-72
2021/04/27 13:56:49;;;;;;;4.33;3.53;;;13.60;53.10;;;;;;4861605;29;20480;-72
2021/04/27 13:59:15;;;;;;;6.30;2.87;;;13.10;52.70;;;;;;4861706;29;20179;-72
2021/04/27 14:01:40;;;;;;;4.00;2.60;;;13.10;54.60;;;;;;4861754;29;20690;-72
2021/04/27 14:04:07;;;;;;;2.50;2.20;;;13.30;52.50;;;;;;4867302;29;20178;-72
2021/04/27 14:06:33;;;;;;;4.50;2.40;;;13.30;53.10;;;;;;4863039;29;20182;-72
2021/04/27 14:08:59;;;;;;;3.80;2.80;;;13.40;54.00;;;;;;4874567;29;20446;-72
2021/04/27 14:11:25;;;;;;;5.17;3.10;;;13.50;54.10;;;;;;4864641;29;20447;-72
2021/04/27 14:13:50;;;;;;;4.37;3.17;;;13.40;53.50;;;;;;4870820;29;20224;-72
2021/04/27 14:16:16;;;;;;;4.90;2.80;;;13.70;53.60;;;;;;4878426;29;20535;-72
2021/04/27 14:18:42;;;;;;;10.20;2.50;;;14.00;52.20;;;;;;4875453;29;20189;-73
2021/04/27 14:21:07;;;;;;;3.13;2.70;;;14.40;54.40;;;;;;4877213;29;20208;-73
2021/04/27 14:23:33;;;;;;;5.83;3.37;;;14.40;51.20;;;;;;4874482;29;20189;-74
2021/04/27 14:25:58;;;;;;;9.20;3.07;;;14.30;52.40;;;;;;4874157;29;20288;-73
2021/04/27 14:28:24;;;;;;;3.57;2.90;;;14.30;52.90;;;;;;4878284;29;20232;-74
2021/04/27 14:30:50;;;;;;;3.80;2.90;;;14.00;51.80;;;;;;4876124;29;20438;-74
2021/04/27 14:33:15;;;;;;;4.90;3.20;;;13.60;53.20;;;;;;4877734;29;20689;-74
2021/04/27 14:35:42;;;;;;;3.57;2.57;;;13.50;52.60;;;;;;4874577;29;20678;-72
2021/04/27 14:38:08;;;;;;;3.67;2.13;;;13.30;51.90;;;;;;4876616;29;20188;-73
2021/04/27 14:40:36;;;;;;;5.37;3.27;;;13.30;52.30;;;;;;4875991;29;20526;-73
2021/04/27 14:43:04;;;;;;;3.13;2.83;;;13.10;54.00;;;;;;4876758;29;20414;-73
2021/04/27 14:45:30;;;;;;;3.53;2.40;;;13.30;53.10;;;;;;4875920;29;20422;-73
2021/04/27 14:47:57;;;;;;;15.13;2.90;;;13.40;52.80;;;;;;4873682;29;20476;-73
2021/04/27 14:50:24;;;;;;;2.60;2.30;;;13.80;52.40;;;;;;4874973;29;20441;-74
2021/04/27 14:52:50;;;;;;;3.73;2.90;;;13.70;52.40;;;;;;4875398;29;20434;-73
2021/04/27 14:55:17;;;;;;;2.80;2.43;;;13.30;52.30;;;;;;4874513;29;20493;-73
2021/04/27 14:57:44;;;;;;;5.50;2.40;;;13.20;51.60;;;;;;4877372;29;20181;-73
2021/04/27 15:00:12;;;;;;;6.43;3.20;;;13.20;53.50;;;;;;4875607;29;20426;-73
2021/04/27 15:02:38;;;;;;;11.30;8.13;;;13.20;53.60;;;;;;4877552;29;20462;-73
2021/04/27 15:05:05;;;;;;;4.73;3.30;;;13.00;54.60;;;;;;4878837;29;20437;-72
2021/04/27 15:07:31;;;;;;;6.20;2.67;;;13.30;53.90;;;;;;4878742;29;20300;-73
2021/04/27 15:09:57;;;;;;;3.70;2.50;;;13.20;52.20;;;;;;4878545;29;20510;-73
2021/04/27 15:12:22;;;;;;;4.47;2.70;;;12.70;52.90;;;;;;4865691;29;20201;-73
2021/04/27 15:14:58;;;;;;;4.40;2.70;;;12.50;54.00;;;;;;4859682;29;20181;-73
2021/04/27 15:17:23;;;;;;;5.83;2.97;;;12.70;54.80;;;;;;4859628;29;20523;-74
2021/04/27 15:19:49;;;;;;;4.70;2.73;;;12.80;52.70;;;;;;4879026;29;20425;-74
2021/04/27 15:22:16;;;;;;;6.17;2.47;;;12.80;51.70;;;;;;4879416;29;20211;-74
2021/04/27 15:24:43;;;;;;;3.70;2.60;;;12.70;51.60;;;;;;4878500;29;20241;-74
2021/04/27 15:27:08;;;;;;;4.83;2.80;;;12.80;52.40;;;;;;4878484;29;20962;-74
2021/04/27 15:29:36;;;;;;;3.07;2.30;;;12.60;52.80;;;;;;4879650;29;20425;-74
2021/04/27 15:32:02;;;;;;;5.23;2.43;;;12.70;50.40;;;;;;4879246;29;20198;-74
2021/04/27 15:34:28;;;;;;;11.63;2.80;;;12.80;50.20;;;;;;4879190;29;20426;-74
2021/04/27 15:36:58;;;;;;;3.63;2.97;;;12.80;51.10;;;;;;4878640;29;20891;-74
2021/04/27 15:39:28;;;;;;;3.80;2.47;;;12.90;52.60;;;;;;4879205;29;20261;-74
2021/04/27 15:41:55;;;;;;;7.73;2.30;;;13.00;52.30;;;;;;4878330;29;20437;-74
2021/04/27 15:44:20;;;;;;;6.90;2.40;;;12.90;52.00;;;;;;4877755;29;20418;-74
2021/04/27 15:46:46;;;;;;;3.37;2.83;;;12.70;52.80;;;;;;4877532;29;20461;-74
2021/04/27 15:49:13;;;;;;;4.13;2.63;;;12.50;52.40;;;;;;4876636;29;20174;-74
2021/04/27 15:51:39;;;;;;;4.20;2.50;;;12.60;52.20;;;;;;4876870;29;20441;-74
2021/04/27 15:54:05;;;;;;;4.73;2.50;;;12.40;53.00;;;;;;4877693;29;20426;-74
2021/04/27 15:56:33;;;;;;;6.40;2.60;;;12.50;52.40;;;;;;4878242;29;20509;-74
2021/04/27 15:58:59;;;;;;;8.27;3.10;;;12.20;51.70;;;;;;4876212;29;20417;-74
2021/04/27 16:01:24;;;;;;;4.27;2.47;;;12.10;52.60;;;;;;4878114;29;20457;-74
2021/04/27 16:03:50;;;;;;;7.53;2.63;;;12.10;53.60;;;;;;4876942;29;20677;-74
2021/04/27 16:06:15;;;;;;;3.43;2.43;;;12.00;52.90;;;;;;4877624;29;20182;-75
2021/04/27 16:08:41;;;;;;;3.40;2.47;;;11.90;53.00;;;;;;4875736;29;20579;-74
2021/04/27 16:11:10;;;;;;;5.07;2.70;;;11.90;53.10;;;;;;4877599;29;20193;-74
2021/04/27 16:13:37;;;;;;;3.33;2.40;;;12.00;53.80;;;;;;4873920;29;20234;-74
2021/04/27 16:16:02;;;;;;;4.53;2.53;;;12.00;54.40;;;;;;4876841;29;20406;-74
2021/04/27 16:18:28;;;;;;;2.40;2.20;;;12.00;51.70;;;;;;4875988;29;20975;-74
2021/04/27 16:20:53;;;;;;;6.07;2.90;;;11.90;51.60;;;;;;4875894;29;20272;-74
2021/04/27 16:23:19;;;;;;;4.77;2.70;;;12.00;51.40;;;;;;4876391;29;20182;-74
2021/04/27 16:25:44;;;;;;;2.70;2.40;;;12.00;52.60;;;;;;4876344;29;20202;-74
2021/04/27 16:28:10;;;;;;;4.03;2.90;;;11.70;52.60;;;;;;4875763;29;20671;-74
2021/04/27 16:30:37;;;;;;;5.97;2.80;;;11.70;53.00;;;;;;4875846;29;20182;-74
2021/04/27 16:33:07;;;;;;;3.47;2.60;;;11.80;53.20;;;;;;4875718;29;20205;-75
2021/04/27 16:35:33;;;;;;;4.03;2.40;;;11.80;52.80;;;;;;4876410;29;20426;-73
2021/04/27 16:37:58;;;;;;;4.30;3.10;;;11.70;53.70;;;;;;4875467;29;20473;-73
2021/04/27 16:40:24;;;;;;;5.03;3.07;;;11.80;54.00;;;;;;4875983;29;20241;-73
2021/04/27 16:42:49;;;;;;;9.40;3.00;;;11.90;53.70;;;;;;4872296;29;20192;-75
2021/04/27 16:45:15;;;;;;;3.93;2.93;;;12.00;52.60;;;;;;4875365;29;20185;-75
2021/04/27 16:47:41;;;;;;;12.37;5.10;;;11.90;53.60;;;;;;4877647;29;20219;-74
2021/04/27 16:50:08;;;;;;;4.30;3.03;;;11.50;54.20;;;;;;4880399;29;20414;-74
2021/04/27 16:52:33;;;;;;;4.60;3.70;;;11.50;54.70;;;;;;4880834;29;20674;-73
2021/04/27 16:54:59;;;;;;;5.93;4.10;;;11.60;55.20;;;;;;4879867;29;20509;-74